Archival Weather

Norman Y Mineta San Jose Intl

San Jose, California (KSJC)

Report from: Tuesday, February 20, 2024 9:53 PM PST
Current time: Monday, June 24, 2024 2:10 AM PDT

Current weather – Weather history – Daily summaries
Weather forecast

Temperature12.2°C (54.0°F)
Dew point9.4°C (48.9°F)
Winds 3 kts (1.5 m/s, 3.5 mph) South-Southeast (150°)
Visibility10 mi. (16.1 km)
Clouds Few clouds 2,000 ft. (610 m)
Few clouds 4,000 ft. (1,219 m)
Ceiling: Broken clouds 5,500 ft. (1,676 m)
Altimeter30.07 in.Hg (1018 mB)
Precip last 3 hoursTrace
Relative humidity83 %
Density altitude-333 ft. (-102 m)
Sea-level pressure101.8 kPa (1018 mB, 30.07 in.Hg)
Max temp last 6 hours13.3°C (55.9°F)
Min temp last 6 hours11.1°C (52.0°F)
Remarks Automated weather observing station with precipitation discriminator
Pressure rising more quickly
Flight conditions Visual Meteorological Conditions
Raw dataKSJC 210553Z 15003KT 10SM FEW020 FEW040 BKN055 12/09 A3007 RMK AO2 SLP182 60000 T01220094 10133 20111 53013
An error has occurred. This application may no longer respond until reloaded. Reload 🗙